createdAt,value
2022-10-17T00:02:23.826Z,8.38
2022-10-17T00:04:50.785Z,8.25
2022-10-17T00:07:17.463Z,8.68
2022-10-17T00:09:44.355Z,7.45
2022-10-17T00:12:11.131Z,8.55
2022-10-17T00:14:37.939Z,9.40
2022-10-17T00:17:04.910Z,9.50
2022-10-17T00:19:31.686Z,9.35
2022-10-17T00:21:58.413Z,9.07
2022-10-17T00:24:25.105Z,9.27
2022-10-17T00:26:51.770Z,10.02
2022-10-17T00:29:19.087Z,9.70
2022-10-17T00:31:47.713Z,10.52
2022-10-17T00:34:14.539Z,10.50
2022-10-17T00:36:41.335Z,9.45
2022-10-17T00:39:09.040Z,10.80
2022-10-17T00:41:35.828Z,9.95
2022-10-17T00:44:08.138Z,9.82
2022-10-17T00:46:36.802Z,9.73
2022-10-17T00:49:12.472Z,9.40
2022-10-17T00:51:50.761Z,9.88
2022-10-17T00:54:20.913Z,9.52
2022-10-17T00:56:48.611Z,9.20
2022-10-17T00:59:17.488Z,9.43
2022-10-17T01:02:06.936Z,10.48
2022-10-17T01:04:33.586Z,9.60
2022-10-17T01:07:00.309Z,9.32
2022-10-17T01:09:27.479Z,10.07
2022-10-17T01:12:04.728Z,9.90
2022-10-17T01:15:14.297Z,9.25
2022-10-17T01:17:55.911Z,10.13
2022-10-17T01:20:36.462Z,9.55
2022-10-17T01:23:46.093Z,9.93
2022-10-17T01:26:21.897Z,9.50
2022-10-17T01:29:21.645Z,9.40
2022-10-17T01:32:11.472Z,10.15
2022-10-17T01:34:51.748Z,10.05
2022-10-17T01:37:45.025Z,9.38
2022-10-17T01:40:16.322Z,10.18
2022-10-17T01:42:46.390Z,8.70
2022-10-17T01:45:17.993Z,10.02
2022-10-17T01:50:19.817Z,9.48
2022-10-17T01:52:53.007Z,9.68
2022-10-17T01:55:32.190Z,9.30
2022-10-17T01:58:08.046Z,9.30
2022-10-17T02:00:35.885Z,9.60
2022-10-17T02:03:07.302Z,9.52
2022-10-17T02:05:38.761Z,9.68
2022-10-17T02:08:06.349Z,9.88
2022-10-17T02:10:47.125Z,9.18
2022-10-17T02:13:21.052Z,9.63
2022-10-17T02:16:08.728Z,8.63
2022-10-17T02:19:13.259Z,9.50
2022-10-17T02:21:58.140Z,9.32
2022-10-17T02:24:33.710Z,10.18
2022-10-17T02:27:24.988Z,10.43
2022-10-17T02:30:22.248Z,10.27
2022-10-17T02:32:55.119Z,10.90
2022-10-17T02:35:25.759Z,10.48
2022-10-17T02:37:54.105Z,10.77
2022-10-17T02:40:24.312Z,11.85
2022-10-17T02:42:54.408Z,11.20
2022-10-17T02:45:24.174Z,11.43
2022-10-17T02:48:11.018Z,10.48
2022-10-17T02:50:40.477Z,10.05
2022-10-17T02:53:17.444Z,10.90
2022-10-17T02:55:51.585Z,10.65
2022-10-17T02:58:26.917Z,11.30
2022-10-17T03:00:54.668Z,10.18
2022-10-17T03:03:28.101Z,10.82
2022-10-17T03:05:55.038Z,11.25
2022-10-17T03:08:25.050Z,11.18
2022-10-17T03:10:51.855Z,10.77
2022-10-17T03:13:19.283Z,10.25
2022-10-17T03:15:46.577Z,9.93
2022-10-17T03:18:14.309Z,10.38
2022-10-17T03:20:41.080Z,10.10
2022-10-17T03:23:08.650Z,9.02
2022-10-17T03:25:36.349Z,10.95
2022-10-17T03:28:03.269Z,10.05
2022-10-17T03:30:30.045Z,9.63
2022-10-17T03:33:00.432Z,10.02
2022-10-17T03:35:27.846Z,10.77
2022-10-17T03:37:56.178Z,10.55
2022-10-17T03:40:24.413Z,11.07
2022-10-17T03:42:51.793Z,10.70
2022-10-17T03:45:18.505Z,10.43
2022-10-17T03:47:46.444Z,11.52
2022-10-17T03:50:13.315Z,11.40
2022-10-17T03:52:40.635Z,10.32
2022-10-17T03:55:08.533Z,10.45
2022-10-17T03:57:36.866Z,11.13
2022-10-17T04:00:05.845Z,11.63
2022-10-17T04:02:40.871Z,11.35
2022-10-17T04:05:10.153Z,12.18
2022-10-17T04:07:37.608Z,12.40
2022-10-17T04:10:05.502Z,11.93
2022-10-17T04:12:32.823Z,12.05
2022-10-17T04:14:59.761Z,11.57
2022-10-17T04:17:27.091Z,13.10
2022-10-17T04:19:53.872Z,12.50
2022-10-17T04:22:22.578Z,11.75
2022-10-17T04:24:49.376Z,11.77
2022-10-17T04:27:38.022Z,12.05
2022-10-17T04:30:05.900Z,12.05
2022-10-17T04:32:38.541Z,10.95
2022-10-17T04:35:13.004Z,11.82
2022-10-17T04:37:44.194Z,11.55
2022-10-17T04:40:17.415Z,10.30
2022-10-17T04:42:44.362Z,11.45
2022-10-17T04:45:13.929Z,11.55
2022-10-17T04:47:41.676Z,11.15
2022-10-17T04:50:08.737Z,12.35
2022-10-17T04:52:39.418Z,11.05
2022-10-17T04:55:08.345Z,11.77
2022-10-17T04:57:36.127Z,11.57
2022-10-17T05:00:18.384Z,13.27
2022-10-17T05:02:57.885Z,10.88
2022-10-17T05:05:25.942Z,11.65
2022-10-17T05:07:54.355Z,11.13
2022-10-17T05:10:25.192Z,11.70
2022-10-17T05:12:53.336Z,11.30
2022-10-17T05:15:23.279Z,11.82
2022-10-17T05:17:55.878Z,12.02
2022-10-17T05:20:24.123Z,11.90
2022-10-17T05:22:50.971Z,11.38
2022-10-17T05:25:19.137Z,11.65
2022-10-17T05:27:45.884Z,11.25
2022-10-17T05:30:12.785Z,11.48
2022-10-17T05:32:40.783Z,10.90
2022-10-17T05:35:08.442Z,10.73
2022-10-17T05:37:36.806Z,12.32
2022-10-17T05:40:05.423Z,11.20
2022-10-17T05:42:32.808Z,11.70
2022-10-17T05:45:00.031Z,11.18
2022-10-17T05:47:27.516Z,10.73
2022-10-17T05:49:54.461Z,11.60
2022-10-17T05:52:27.350Z,12.02
2022-10-17T05:55:04.871Z,11.75
2022-10-17T05:57:31.754Z,11.98
2022-10-17T06:00:00.816Z,13.70
2022-10-17T06:02:29.500Z,12.20
2022-10-17T06:04:56.411Z,12.13
2022-10-17T06:07:24.172Z,12.65
2022-10-17T06:09:51.752Z,11.90
2022-10-17T06:12:18.459Z,12.73
2022-10-17T06:14:45.903Z,13.45
2022-10-17T06:17:16.223Z,12.60
2022-10-17T06:19:44.788Z,12.45
2022-10-17T06:22:12.866Z,12.82
2022-10-17T06:24:40.212Z,12.90
2022-10-17T06:27:11.013Z,12.80
2022-10-17T06:32:08.694Z,13.52
2022-10-17T06:34:38.497Z,13.48
2022-10-17T06:37:05.341Z,14.15
2022-10-17T06:39:35.759Z,12.65
2022-10-17T06:42:07.042Z,12.52
2022-10-17T06:44:45.826Z,13.02
2022-10-17T06:47:32.997Z,12.68
2022-10-17T06:50:05.616Z,13.75
2022-10-17T06:52:42.144Z,14.15
2022-10-17T06:55:27.578Z,12.38
2022-10-17T06:58:15.882Z,12.25
2022-10-17T07:01:01.697Z,12.93
2022-10-17T07:03:28.972Z,14.77
2022-10-17T07:05:56.789Z,13.07
2022-10-17T07:08:24.182Z,13.30
2022-10-17T07:10:51.375Z,13.15
2022-10-17T07:13:18.801Z,11.40
2022-10-17T07:15:46.314Z,11.45
2022-10-17T07:18:14.521Z,10.82
2022-10-17T07:20:41.274Z,10.43
2022-10-17T07:23:07.980Z,9.73
2022-10-17T07:25:39.388Z,9.65
2022-10-17T07:28:08.649Z,8.88
2022-10-17T07:30:35.782Z,8.85
2022-10-17T07:33:07.662Z,8.65
2022-10-17T07:35:34.875Z,7.97
2022-10-17T07:38:01.604Z,8.43
2022-10-17T07:40:28.401Z,8.63
2022-10-17T07:42:56.370Z,7.85
2022-10-17T07:45:27.561Z,7.85
2022-10-17T07:47:57.879Z,7.90
2022-10-17T07:50:25.497Z,7.00
2022-10-17T07:52:52.345Z,7.03
2022-10-17T07:55:19.187Z,6.40
2022-10-17T07:57:45.872Z,5.97
2022-10-17T08:00:13.228Z,6.13
2022-10-17T08:02:41.233Z,6.07
2022-10-17T08:05:08.411Z,5.88
2022-10-17T08:07:35.129Z,6.50
2022-10-17T08:10:02.071Z,5.72
2022-10-17T08:12:32.318Z,6.45
2022-10-17T08:14:59.493Z,6.95
2022-10-17T08:17:26.506Z,6.47
2022-10-17T08:19:53.208Z,6.32
2022-10-17T08:22:19.873Z,5.30
2022-10-17T08:24:46.603Z,6.13
2022-10-17T08:27:13.754Z,5.05
2022-10-17T08:29:40.757Z,5.82
2022-10-17T08:32:09.998Z,5.82
2022-10-17T08:34:37.144Z,4.93
2022-10-17T08:37:04.158Z,5.53
2022-10-17T08:39:30.861Z,5.30
2022-10-17T08:42:03.321Z,5.35
2022-10-17T08:44:43.381Z,5.10
2022-10-17T08:47:17.913Z,5.85
2022-10-17T08:49:53.216Z,4.78
2022-10-17T08:52:35.207Z,5.05
2022-10-17T08:55:01.870Z,4.80
2022-10-17T08:57:29.141Z,4.57
2022-10-17T08:59:56.811Z,4.40
2022-10-17T09:02:38.904Z,4.40
2022-10-17T09:05:27.325Z,4.90
2022-10-17T09:08:22.232Z,4.20
2022-10-17T09:11:04.193Z,4.60
2022-10-17T09:13:49.577Z,4.35
2022-10-17T09:16:29.843Z,4.20
2022-10-17T09:19:03.871Z,3.88
2022-10-17T09:21:43.422Z,4.05
2022-10-17T09:24:25.226Z,4.40
2022-10-17T09:26:54.501Z,4.45
2022-10-17T09:29:30.838Z,4.68
2022-10-17T09:32:17.188Z,4.55
2022-10-17T09:34:44.033Z,4.40
2022-10-17T09:37:17.091Z,4.13
2022-10-17T09:39:47.139Z,4.28
2022-10-17T09:42:19.281Z,4.30
2022-10-17T09:45:04.607Z,3.75
2022-10-17T09:47:38.082Z,4.72
2022-10-17T09:50:15.518Z,4.30
2022-10-17T09:52:48.606Z,5.45
2022-10-17T09:55:44.119Z,5.13
2022-10-17T09:58:11.993Z,4.93
2022-10-17T10:00:41.889Z,4.70
2022-10-17T10:03:19.822Z,4.55
2022-10-17T10:06:16.715Z,4.57
2022-10-17T10:08:50.851Z,4.30
2022-10-17T10:11:18.942Z,5.28
2022-10-17T10:13:47.693Z,4.95
2022-10-17T10:16:21.059Z,4.60
2022-10-17T10:18:50.809Z,4.55
2022-10-17T10:21:23.585Z,4.90
2022-10-17T10:24:08.683Z,4.88
2022-10-17T10:26:41.339Z,4.88
2022-10-17T10:29:41.409Z,4.70
2022-10-17T10:32:30.650Z,5.30
2022-10-17T10:35:02.145Z,4.93
2022-10-17T10:37:34.472Z,5.70
2022-10-17T10:40:04.386Z,5.75
2022-10-17T10:42:37.659Z,5.72
2022-10-17T10:45:47.487Z,6.30
2022-10-17T10:48:23.762Z,6.38
2022-10-17T10:51:00.597Z,6.47
2022-10-17T10:53:57.205Z,8.80
2022-10-17T10:56:44.034Z,8.65
2022-10-17T10:59:28.901Z,7.63
2022-10-17T11:02:02.167Z,6.70
2022-10-17T11:04:47.456Z,6.63
2022-10-17T11:07:30.075Z,7.22
2022-10-17T11:10:18.245Z,6.13
2022-10-17T11:12:54.359Z,6.63
2022-10-17T11:15:39.267Z,7.38
2022-10-17T11:18:13.125Z,7.03
2022-10-17T11:20:52.305Z,6.93
2022-10-17T11:23:46.928Z,9.23
2022-10-17T11:26:27.025Z,7.43
2022-10-17T11:28:54.780Z,7.38
2022-10-17T11:31:24.283Z,6.65
2022-10-17T11:33:56.961Z,5.70
2022-10-17T11:36:46.347Z,5.75
2022-10-17T11:42:19.669Z,4.72
2022-10-17T11:44:50.682Z,5.57
2022-10-17T11:47:32.262Z,4.63
2022-10-17T11:53:09.765Z,5.13
2022-10-17T11:55:38.299Z,5.03
2022-10-17T11:58:32.585Z,4.80
2022-10-17T12:01:05.386Z,6.45
2022-10-17T12:03:57.681Z,5.55
2022-10-17T12:06:54.619Z,4.75
2022-10-17T12:09:46.070Z,4.93
2022-10-17T12:12:26.038Z,5.95
2022-10-17T12:14:53.279Z,4.80
2022-10-17T12:17:39.250Z,4.45
2022-10-17T12:20:23.965Z,4.78
2022-10-17T12:22:51.999Z,4.30
2022-10-17T12:25:59.622Z,4.43
2022-10-17T12:31:21.728Z,4.13
2022-10-17T12:33:57.670Z,4.47
2022-10-17T12:36:27.541Z,3.60
2022-10-17T12:39:02.980Z,4.38
2022-10-17T12:41:38.574Z,4.30
2022-10-17T12:44:14.452Z,3.35
2022-10-17T12:46:41.655Z,4.05
2022-10-17T12:49:20.934Z,3.78
2022-10-17T12:52:15.118Z,4.38
2022-10-17T12:54:53.577Z,4.00
2022-10-17T12:57:35.661Z,4.72
2022-10-17T13:00:13.802Z,4.25
2022-10-17T13:02:41.249Z,5.32
2022-10-17T13:05:15.735Z,4.22
2022-10-17T13:07:45.215Z,4.57
2022-10-17T13:10:34.837Z,4.47
2022-10-17T13:13:06.134Z,4.80
2022-10-17T13:15:35.019Z,4.45
2022-10-17T13:18:01.811Z,5.50
2022-10-17T13:20:31.721Z,4.03
2022-10-17T13:22:58.846Z,4.43
2022-10-17T13:25:27.295Z,4.40
2022-10-17T13:28:05.480Z,5.10
2022-10-17T13:30:36.625Z,4.38
2022-10-17T13:33:15.917Z,4.30
2022-10-17T13:35:59.573Z,4.35
2022-10-17T13:38:32.364Z,4.45
2022-10-17T13:41:06.158Z,4.30
2022-10-17T13:43:43.779Z,4.07
2022-10-17T13:46:37.221Z,4.70
2022-10-17T13:49:18.663Z,4.47
2022-10-17T13:51:47.795Z,5.00
2022-10-17T13:54:40.669Z,4.78
2022-10-17T13:57:25.097Z,4.43
2022-10-17T14:00:08.575Z,3.88
2022-10-17T14:02:41.782Z,4.05
2022-10-17T14:05:17.626Z,4.00
2022-10-17T14:08:13.068Z,3.83
2022-10-17T14:10:43.215Z,4.00
2022-10-17T14:13:27.729Z,4.32
2022-10-17T14:15:57.349Z,4.05
2022-10-17T14:18:36.624Z,4.10
2022-10-17T14:24:13.089Z,4.38
2022-10-17T14:26:58.850Z,3.83
2022-10-17T14:29:32.889Z,4.15
2022-10-17T14:32:03.881Z,4.45
2022-10-17T14:34:36.681Z,4.03
2022-10-17T14:37:13.126Z,4.15
2022-10-17T14:39:39.962Z,6.10
2022-10-17T14:42:07.068Z,4.75
2022-10-17T14:44:35.770Z,4.30
2022-10-17T14:47:38.132Z,4.72
2022-10-17T14:50:12.602Z,4.72
2022-10-17T14:52:40.685Z,5.28
2022-10-17T14:55:25.672Z,4.20
2022-10-17T14:57:52.281Z,4.65
2022-10-17T15:00:20.920Z,4.57
2022-10-17T15:02:49.000Z,4.95
2022-10-17T15:05:15.983Z,4.40
2022-10-17T15:07:43.108Z,4.80
2022-10-17T15:10:36.531Z,5.78
2022-10-17T15:13:26.577Z,5.03
2022-10-17T15:15:52.406Z,6.25
2022-10-17T15:18:19.448Z,5.88
2022-10-17T15:20:46.158Z,6.35
2022-10-17T15:23:12.905Z,6.00
2022-10-17T15:25:40.037Z,5.60
2022-10-17T15:28:06.733Z,5.78
2022-10-17T15:30:36.336Z,6.68
2022-10-17T15:33:03.422Z,6.20
2022-10-17T15:35:30.830Z,7.35
2022-10-17T15:37:57.717Z,8.15
2022-10-17T15:40:29.587Z,7.03
2022-10-17T15:42:57.235Z,6.40
2022-10-17T15:45:24.427Z,6.10
2022-10-17T15:47:57.474Z,6.40
2022-10-17T15:50:24.236Z,7.30
2022-10-17T15:52:51.015Z,6.53
2022-10-17T15:55:18.919Z,7.35
2022-10-17T15:57:46.980Z,7.68
2022-10-17T16:00:18.885Z,6.95
2022-10-17T16:02:46.371Z,7.20
2022-10-17T16:05:25.994Z,7.78
2022-10-17T16:07:53.903Z,8.85
2022-10-17T16:10:22.526Z,10.05
2022-10-17T16:12:50.210Z,9.50
2022-10-17T16:15:26.372Z,8.75
2022-10-17T16:17:54.809Z,8.52
2022-10-17T16:20:22.792Z,10.82
2022-10-17T16:22:50.117Z,7.88
2022-10-17T16:25:27.013Z,8.10
2022-10-17T16:27:55.969Z,7.07
2022-10-17T16:30:24.966Z,7.78
2022-10-17T16:32:52.448Z,7.40
2022-10-17T16:35:25.616Z,10.30
2022-10-17T16:37:52.578Z,7.63
2022-10-17T16:40:19.462Z,8.70
2022-10-17T16:42:46.534Z,8.90
2022-10-17T16:45:22.533Z,8.70
2022-10-17T16:47:50.391Z,8.02
2022-10-17T16:50:17.198Z,7.78
2022-10-17T16:52:43.906Z,7.35
2022-10-17T16:55:10.965Z,7.53
2022-10-17T16:57:37.878Z,7.03
2022-10-17T17:00:06.499Z,8.40
2022-10-17T17:02:33.566Z,8.30
2022-10-17T17:05:00.425Z,8.68
2022-10-17T17:07:29.368Z,8.23
2022-10-17T17:09:56.576Z,8.32
2022-10-17T17:12:23.677Z,10.65
2022-10-17T17:14:50.369Z,10.65
2022-10-17T17:17:30.180Z,10.80
2022-10-17T17:20:04.072Z,10.68
2022-10-17T17:22:30.926Z,10.00
2022-10-17T17:24:57.571Z,10.73
2022-10-17T17:27:25.101Z,10.05
2022-10-17T17:29:52.114Z,10.07
2022-10-17T17:32:18.762Z,9.45
2022-10-17T17:34:45.438Z,8.73
2022-10-17T17:37:12.194Z,8.98
2022-10-17T17:39:38.792Z,10.52
2022-10-17T17:42:05.498Z,8.90
2022-10-17T17:44:32.223Z,8.93
2022-10-17T17:46:58.892Z,8.63
2022-10-17T17:49:25.802Z,10.57
2022-10-17T17:51:52.623Z,10.40
2022-10-17T17:54:19.890Z,9.70
2022-10-17T17:56:46.699Z,9.85
2022-10-17T17:59:13.528Z,8.68
2022-10-17T18:01:40.472Z,10.75
2022-10-17T18:04:08.707Z,9.85
2022-10-17T18:06:37.357Z,8.95
2022-10-17T18:09:05.241Z,9.05
2022-10-17T18:11:32.373Z,8.52
2022-10-17T18:14:01.677Z,7.72
2022-10-17T18:16:29.675Z,8.85
2022-10-17T18:18:59.463Z,8.13
2022-10-17T18:23:54.701Z,8.45
2022-10-17T18:26:21.408Z,8.05
2022-10-17T18:28:49.417Z,8.98
2022-10-17T18:31:19.687Z,7.30
2022-10-17T18:33:46.738Z,7.70
2022-10-17T18:36:15.197Z,6.50
2022-10-17T18:38:42.680Z,7.22
2022-10-17T18:41:12.278Z,6.80
2022-10-17T18:43:41.181Z,6.65
2022-10-17T18:46:13.901Z,6.90
2022-10-17T18:48:44.241Z,6.70
2022-10-17T18:51:11.898Z,7.82
2022-10-17T18:53:43.476Z,8.13
2022-10-17T18:56:11.197Z,9.05
2022-10-17T18:58:38.639Z,8.05
2022-10-17T19:01:08.172Z,10.02
2022-10-17T19:03:35.658Z,7.80
2022-10-17T19:06:09.399Z,7.10
2022-10-17T19:08:37.661Z,6.30
2022-10-17T19:11:08.117Z,6.20
2022-10-17T19:13:35.864Z,5.90
2022-10-17T19:16:10.641Z,5.90
2022-10-17T19:18:38.117Z,5.47
2022-10-17T19:21:06.698Z,5.13
2022-10-17T19:23:35.789Z,5.00
2022-10-17T19:26:11.123Z,5.07
2022-10-17T19:28:41.997Z,4.63
2022-10-17T19:31:09.098Z,5.40
2022-10-17T19:33:36.788Z,4.60
2022-10-17T19:36:08.449Z,6.07
2022-10-17T19:41:07.749Z,5.72
2022-10-17T19:43:38.737Z,6.32
2022-10-17T19:46:17.423Z,6.65
2022-10-17T19:48:45.091Z,5.55
2022-10-17T19:51:15.227Z,4.90
2022-10-17T19:53:42.503Z,4.32
2022-10-17T19:56:09.694Z,4.20
2022-10-17T19:58:44.042Z,4.25
2022-10-17T20:01:13.916Z,4.00
2022-10-17T20:03:40.655Z,4.30
2022-10-17T20:06:08.265Z,3.88
2022-10-17T20:08:35.748Z,3.83
2022-10-17T20:11:05.129Z,4.13
2022-10-17T20:13:32.314Z,4.15
2022-10-17T20:15:59.248Z,5.03
2022-10-17T20:18:27.201Z,4.28
2022-10-17T20:20:54.396Z,4.57
2022-10-17T20:23:22.174Z,5.00
2022-10-17T20:26:13.403Z,4.07
2022-10-17T20:28:46.331Z,3.33
2022-10-17T20:31:14.110Z,3.75
2022-10-17T20:33:41.643Z,3.58
2022-10-17T20:36:11.400Z,3.50
2022-10-17T20:38:38.151Z,3.25
2022-10-17T20:41:07.294Z,3.10
2022-10-17T20:43:34.449Z,3.10
2022-10-17T20:46:09.677Z,3.83
2022-10-17T20:48:42.507Z,3.58
2022-10-17T20:51:10.603Z,3.25
2022-10-17T20:53:38.049Z,3.20
2022-10-17T20:56:08.418Z,3.47
2022-10-17T20:58:35.775Z,3.47
2022-10-17T21:01:10.068Z,4.53
2022-10-17T21:03:40.972Z,2.92
2022-10-17T21:06:10.810Z,2.90
2022-10-17T21:08:37.924Z,3.08
2022-10-17T21:11:19.733Z,2.63
2022-10-17T21:13:47.602Z,2.70
2022-10-17T21:16:18.911Z,3.22
2022-10-17T21:18:46.164Z,2.70
2022-10-17T21:21:15.746Z,2.50
2022-10-17T21:23:45.302Z,2.90
2022-10-17T21:26:13.387Z,2.67
2022-10-17T21:28:41.099Z,3.05
2022-10-17T21:31:28.342Z,3.15
2022-10-17T21:33:56.806Z,2.97
2022-10-17T21:36:25.108Z,2.67
2022-10-17T21:38:53.847Z,2.70
2022-10-17T21:41:23.561Z,2.70
2022-10-17T21:43:59.473Z,2.90
2022-10-17T21:46:26.673Z,2.45
2022-10-17T21:48:53.887Z,2.30
2022-10-17T21:51:23.542Z,2.63
2022-10-17T21:53:51.754Z,2.47
2022-10-17T21:56:21.393Z,2.42
2022-10-17T21:58:48.917Z,2.28
2022-10-17T22:01:18.852Z,2.20
2022-10-17T22:03:47.738Z,2.75
2022-10-17T22:09:05.166Z,2.75
2022-10-17T22:11:34.883Z,2.65
2022-10-17T22:14:11.898Z,2.70
2022-10-17T22:16:39.197Z,2.65
2022-10-17T22:19:06.989Z,2.78
2022-10-17T22:21:35.483Z,2.85
2022-10-17T22:24:05.197Z,3.08
2022-10-17T22:26:34.403Z,2.55
2022-10-17T22:29:01.620Z,2.35
2022-10-17T22:31:28.623Z,2.95
2022-10-17T22:33:55.911Z,2.28
2022-10-17T22:36:22.795Z,2.60
2022-10-17T22:38:49.424Z,2.75
2022-10-17T22:41:16.274Z,3.00
2022-10-17T22:43:42.944Z,2.42
2022-10-17T22:46:12.858Z,2.83
2022-10-17T22:48:39.631Z,2.67
2022-10-17T22:51:06.407Z,3.25
2022-10-17T22:53:34.957Z,2.85
2022-10-17T22:56:14.806Z,2.83
2022-10-17T22:58:41.849Z,3.15
2022-10-17T23:01:14.525Z,2.83
2022-10-17T23:03:41.479Z,2.92
2022-10-17T23:06:08.594Z,3.20
2022-10-17T23:08:35.559Z,3.20
2022-10-17T23:11:02.242Z,3.35
2022-10-17T23:13:29.013Z,3.30
2022-10-17T23:15:57.051Z,3.20
2022-10-17T23:18:25.628Z,3.35
2022-10-17T23:20:53.119Z,3.33
2022-10-17T23:23:20.207Z,3.45
2022-10-17T23:25:46.986Z,3.17
2022-10-17T23:28:13.702Z,3.58
2022-10-17T23:30:40.798Z,3.95
2022-10-17T23:33:07.996Z,3.15
2022-10-17T23:35:35.880Z,3.10
2022-10-17T23:38:03.051Z,3.38
2022-10-17T23:40:30.041Z,3.28
2022-10-17T23:42:56.761Z,3.30
2022-10-17T23:45:23.612Z,3.95
2022-10-17T23:47:50.332Z,3.33
2022-10-17T23:50:17.120Z,3.33
2022-10-17T23:52:43.858Z,2.78
2022-10-17T23:55:11.102Z,3.47
2022-10-17T23:57:37.785Z,3.13
